createdAt,value
2023-04-29T00:01:04.229Z,4.47
2023-04-29T00:03:32.903Z,4.25
2023-04-29T00:06:00.684Z,4.03
2023-04-29T00:08:27.889Z,4.10
2023-04-29T00:10:54.718Z,4.30
2023-04-29T00:13:21.489Z,4.10
2023-04-29T00:15:48.253Z,4.18
2023-04-29T00:18:14.883Z,3.08
2023-04-29T00:20:42.248Z,3.40
2023-04-29T00:25:36.077Z,4.07
2023-04-29T00:28:03.458Z,4.00
2023-04-29T00:32:56.979Z,3.80
2023-04-29T00:35:23.641Z,4.18
2023-04-29T00:37:50.328Z,4.22
2023-04-29T00:40:17.513Z,3.63
2023-04-29T00:42:44.329Z,3.80
2023-04-29T00:45:11.724Z,3.80
2023-04-29T00:52:33.081Z,4.15
2023-04-29T00:55:00.227Z,3.95
2023-04-29T00:57:30.214Z,4.05
2023-04-29T01:00:00.348Z,3.65
2023-04-29T01:02:28.505Z,4.00
2023-04-29T01:04:55.775Z,3.80
2023-04-29T01:07:44.223Z,4.25
2023-04-29T01:10:20.185Z,4.30
2023-04-29T01:12:54.853Z,3.88
2023-04-29T01:15:22.951Z,3.90
2023-04-29T01:17:52.489Z,3.72
2023-04-29T01:20:19.613Z,3.85
2023-04-29T01:22:46.172Z,3.80
2023-04-29T01:25:13.130Z,5.60
2023-04-29T01:28:05.321Z,5.43
2023-04-29T01:30:38.000Z,5.38
2023-04-29T01:33:20.073Z,4.90
2023-04-29T01:35:55.720Z,4.70
2023-04-29T01:38:44.841Z,5.00
2023-04-29T01:41:31.839Z,4.45
2023-04-29T01:48:55.603Z,4.40
2023-04-29T01:51:22.287Z,4.47
2023-04-29T01:53:49.279Z,4.25
2023-04-29T01:56:16.175Z,4.47
2023-04-29T01:58:42.948Z,4.10
2023-04-29T02:01:10.541Z,5.75
2023-04-29T02:03:37.693Z,5.35
2023-04-29T02:06:06.987Z,4.97
2023-04-29T02:08:33.687Z,4.88
2023-04-29T02:11:00.560Z,5.00
2023-04-29T02:13:27.206Z,4.30
2023-04-29T02:15:53.832Z,4.55
2023-04-29T02:18:20.391Z,3.80
2023-04-29T02:20:47.015Z,4.13
2023-04-29T02:23:13.813Z,3.88
2023-04-29T02:25:40.426Z,2.85
2023-04-29T02:28:07.380Z,3.05
2023-04-29T02:30:34.041Z,3.78
2023-04-29T02:33:00.703Z,4.40
2023-04-29T02:35:27.465Z,3.70
2023-04-29T02:37:54.072Z,3.72
2023-04-29T02:40:21.630Z,4.32
2023-04-29T02:42:48.396Z,4.13
2023-04-29T02:45:15.218Z,4.13
2023-04-29T02:47:41.913Z,4.10
2023-04-29T02:50:08.946Z,4.13
2023-04-29T02:52:35.524Z,4.40
2023-04-29T02:55:02.690Z,4.65
2023-04-29T02:57:29.830Z,4.60
2023-04-29T02:59:56.824Z,4.50
2023-04-29T03:02:23.610Z,4.82
2023-04-29T03:04:50.240Z,4.60
2023-04-29T03:07:17.558Z,5.00
2023-04-29T03:12:10.608Z,6.20
2023-04-29T03:14:37.238Z,5.95
2023-04-29T03:17:04.974Z,6.00
2023-04-29T03:19:31.826Z,5.10
2023-04-29T03:21:58.485Z,4.88
2023-04-29T03:24:25.157Z,4.95
2023-04-29T03:26:51.853Z,4.70
2023-04-29T03:29:18.439Z,5.22
2023-04-29T03:31:45.388Z,3.05
2023-04-29T03:34:12.052Z,4.40
2023-04-29T03:36:38.633Z,3.90
2023-04-29T03:39:05.345Z,3.83
2023-04-29T03:41:32.050Z,4.63
2023-04-29T03:44:00.932Z,4.00
2023-04-29T03:46:27.961Z,4.78
2023-04-29T03:48:56.182Z,4.90
2023-04-29T03:51:26.759Z,4.35
2023-04-29T03:53:56.336Z,4.95
2023-04-29T03:56:23.127Z,4.90
2023-04-29T03:58:49.863Z,5.65
2023-04-29T04:01:16.850Z,4.13
2023-04-29T04:03:43.638Z,5.80
2023-04-29T04:06:10.358Z,5.93
2023-04-29T04:08:36.917Z,5.65
2023-04-29T04:11:04.758Z,5.93
2023-04-29T04:13:31.408Z,6.13
2023-04-29T04:15:58.372Z,6.60
2023-04-29T04:18:25.130Z,6.32
2023-04-29T04:20:51.782Z,6.32
2023-04-29T04:23:18.443Z,6.65
2023-04-29T04:25:49.169Z,8.13
2023-04-29T04:28:15.925Z,6.82
2023-04-29T04:30:43.118Z,6.35
2023-04-29T04:33:10.783Z,5.78
2023-04-29T04:35:37.403Z,6.78
2023-04-29T04:38:04.075Z,8.10
2023-04-29T04:40:30.848Z,5.18
2023-04-29T04:42:57.463Z,4.80
2023-04-29T04:45:24.197Z,5.28
2023-04-29T04:47:50.929Z,4.45
2023-04-29T04:50:17.801Z,4.40
2023-04-29T04:52:44.424Z,4.78
2023-04-29T04:55:13.775Z,4.05
2023-04-29T04:57:41.753Z,5.97
2023-04-29T05:00:08.934Z,6.18
2023-04-29T05:02:36.094Z,5.68
2023-04-29T05:05:02.840Z,5.30
2023-04-29T05:07:29.468Z,5.15
2023-04-29T05:09:56.250Z,3.97
2023-04-29T05:12:23.598Z,4.75
2023-04-29T05:17:19.665Z,4.53
2023-04-29T05:19:46.726Z,3.97
2023-04-29T05:22:13.491Z,4.20
2023-04-29T05:24:40.122Z,4.00
2023-04-29T05:27:06.938Z,3.97
2023-04-29T05:29:33.798Z,3.65
2023-04-29T05:32:00.491Z,3.88
2023-04-29T05:34:27.232Z,4.20
2023-04-29T05:36:54.078Z,3.88
2023-04-29T05:39:20.880Z,3.55
2023-04-29T05:41:47.465Z,3.95
2023-04-29T05:44:14.146Z,3.85
2023-04-29T05:46:40.832Z,3.65
2023-04-29T05:49:07.449Z,3.20
2023-04-29T05:51:34.042Z,3.90
2023-04-29T05:54:00.678Z,2.40
2023-04-29T05:56:27.297Z,2.60
2023-04-29T05:58:54.006Z,3.10
2023-04-29T06:01:20.571Z,2.60
2023-04-29T06:03:47.543Z,2.43
2023-04-29T06:06:14.503Z,4.95
2023-04-29T06:08:41.548Z,4.75
2023-04-29T06:11:08.285Z,5.10
2023-04-29T06:13:35.189Z,4.53
2023-04-29T06:16:01.930Z,4.78
2023-04-29T06:18:28.621Z,4.75
2023-04-29T06:20:55.206Z,4.38
2023-04-29T06:23:21.857Z,4.10
2023-04-29T06:25:49.116Z,5.13
2023-04-29T06:28:17.055Z,4.32
2023-04-29T06:30:43.704Z,3.78
2023-04-29T06:33:10.441Z,4.05
2023-04-29T06:35:40.658Z,3.65
2023-04-29T06:38:08.606Z,3.28
2023-04-29T06:40:35.689Z,3.97
2023-04-29T06:43:04.713Z,3.85
2023-04-29T06:45:31.796Z,3.47
2023-04-29T06:47:58.489Z,2.83
2023-04-29T06:50:26.080Z,3.20
2023-04-29T06:52:53.018Z,3.78
2023-04-29T06:55:19.732Z,3.47
2023-04-29T06:57:46.405Z,3.60
2023-04-29T07:00:13.352Z,2.92
2023-04-29T07:02:40.333Z,3.13
2023-04-29T07:05:07.629Z,4.30
2023-04-29T07:07:34.469Z,4.35
2023-04-29T07:10:01.190Z,3.88
2023-04-29T07:12:27.867Z,4.05
2023-04-29T07:14:54.573Z,3.60
2023-04-29T07:17:21.215Z,5.55
2023-04-29T07:19:47.888Z,3.67
2023-04-29T07:22:14.562Z,3.30
2023-04-29T07:24:41.617Z,3.58
2023-04-29T07:27:08.323Z,4.30
2023-04-29T07:29:34.960Z,4.50
2023-04-29T07:32:01.547Z,3.63
2023-04-29T07:34:28.140Z,3.63
2023-04-29T07:36:54.770Z,3.50
2023-04-29T07:39:22.062Z,4.18
2023-04-29T07:44:15.428Z,3.20
2023-04-29T07:46:42.159Z,3.83
2023-04-29T07:49:09.049Z,3.38
2023-04-29T07:51:35.736Z,4.00
2023-04-29T07:54:02.409Z,3.50
2023-04-29T07:56:29.070Z,3.30
2023-04-29T07:58:55.784Z,3.30
2023-04-29T08:01:22.689Z,3.55
2023-04-29T08:03:49.651Z,3.47
2023-04-29T08:06:16.988Z,6.03
2023-04-29T08:08:44.104Z,3.63
2023-04-29T08:11:17.351Z,3.50
2023-04-29T08:13:44.114Z,3.70
2023-04-29T08:16:11.759Z,4.03
2023-04-29T08:18:38.504Z,3.90
2023-04-29T08:21:05.235Z,3.72
2023-04-29T08:23:32.636Z,3.38
2023-04-29T08:28:25.977Z,2.85
2023-04-29T08:30:52.623Z,3.40
2023-04-29T08:33:19.314Z,3.30
2023-04-29T08:35:45.929Z,3.25
2023-04-29T08:38:12.510Z,4.30
2023-04-29T08:40:45.773Z,3.90
2023-04-29T08:43:14.009Z,3.63
2023-04-29T08:45:42.567Z,3.40
2023-04-29T08:48:10.127Z,3.50
2023-04-29T08:50:40.970Z,3.45
2023-04-29T08:53:11.777Z,3.10
2023-04-29T08:55:48.416Z,3.50
2023-04-29T08:58:16.241Z,3.53
2023-04-29T09:00:44.324Z,2.88
2023-04-29T09:03:29.564Z,3.05
2023-04-29T09:06:00.411Z,3.17
2023-04-29T09:08:27.816Z,3.35
2023-04-29T09:13:29.120Z,3.05
2023-04-29T09:15:56.288Z,3.30
2023-04-29T09:18:48.871Z,3.03
2023-04-29T09:21:23.692Z,3.13
2023-04-29T09:23:53.839Z,3.45
2023-04-29T09:26:21.112Z,3.08
2023-04-29T09:28:49.817Z,3.47
2023-04-29T09:31:28.088Z,3.20
2023-04-29T09:33:57.628Z,3.47
2023-04-29T09:36:46.427Z,3.45
2023-04-29T09:39:23.470Z,3.28
2023-04-29T09:41:52.877Z,3.60
2023-04-29T09:44:22.447Z,3.80
2023-04-29T09:47:02.938Z,3.35
2023-04-29T09:49:35.908Z,3.40
2023-04-29T09:52:04.607Z,2.95
2023-04-29T09:54:33.262Z,3.30
2023-04-29T09:57:02.492Z,3.17
2023-04-29T09:59:29.081Z,3.38
2023-04-29T10:01:58.357Z,3.37
2023-04-29T10:04:27.077Z,3.00
2023-04-29T10:06:55.548Z,2.97
2023-04-29T10:09:23.623Z,3.08
2023-04-29T10:11:54.225Z,3.30
2023-04-29T10:14:23.174Z,2.90
2023-04-29T10:17:11.528Z,3.35
2023-04-29T10:19:59.399Z,3.60
2023-04-29T10:22:49.202Z,2.70
2023-04-29T10:25:18.370Z,2.97
2023-04-29T10:27:45.777Z,2.80
2023-04-29T10:35:25.801Z,3.05
2023-04-29T10:37:54.349Z,3.15
2023-04-29T10:40:26.980Z,3.10
2023-04-29T10:42:54.839Z,3.85
2023-04-29T10:45:30.031Z,5.85
2023-04-29T10:48:09.168Z,3.97
2023-04-29T10:50:42.726Z,3.42
2023-04-29T10:53:09.354Z,3.45
2023-04-29T10:55:37.869Z,3.30
2023-04-29T10:58:05.644Z,3.00
2023-04-29T11:00:34.941Z,3.60
2023-04-29T11:03:03.015Z,3.70
2023-04-29T11:05:35.066Z,3.38
2023-04-29T11:08:13.086Z,3.60
2023-04-29T11:10:44.195Z,3.45
2023-04-29T11:13:31.142Z,3.70
2023-04-29T11:16:09.643Z,3.50
2023-04-29T11:18:56.925Z,2.90
2023-04-29T11:21:23.773Z,3.45
2023-04-29T11:23:52.280Z,3.17
2023-04-29T11:26:21.861Z,3.22
2023-04-29T11:28:48.657Z,3.30
2023-04-29T11:31:15.500Z,3.15
2023-04-29T11:33:42.237Z,2.90
2023-04-29T11:36:11.395Z,2.72
2023-04-29T11:38:41.300Z,3.10
2023-04-29T11:41:08.970Z,3.28
2023-04-29T11:43:35.667Z,3.22
2023-04-29T11:46:02.335Z,2.90
2023-04-29T11:48:30.413Z,2.33
2023-04-29T11:51:00.214Z,3.20
2023-04-29T11:53:28.112Z,3.20
2023-04-29T11:55:56.131Z,3.35
2023-04-29T11:58:23.982Z,2.80
2023-04-29T12:00:52.064Z,3.05
2023-04-29T12:03:21.200Z,3.33
2023-04-29T12:05:55.387Z,3.17
2023-04-29T12:08:26.966Z,3.45
2023-04-29T12:10:56.559Z,3.20
2023-04-29T12:13:26.020Z,3.05
2023-04-29T12:15:53.230Z,2.80
2023-04-29T12:18:23.358Z,3.05
2023-04-29T12:20:51.586Z,5.85
2023-04-29T12:23:24.315Z,5.68
2023-04-29T12:25:56.671Z,4.13
2023-04-29T12:28:23.914Z,4.82
2023-04-29T12:30:52.469Z,4.00
2023-04-29T12:33:27.678Z,3.13
2023-04-29T12:35:59.483Z,3.60
2023-04-29T12:38:32.530Z,4.05
2023-04-29T12:41:01.148Z,3.63
2023-04-29T12:43:33.799Z,3.05
2023-04-29T12:46:04.296Z,3.25
2023-04-29T12:48:33.547Z,3.10
2023-04-29T12:51:04.342Z,2.70
2023-04-29T12:53:31.553Z,2.45
2023-04-29T12:55:58.741Z,4.20
2023-04-29T12:58:28.654Z,2.72
2023-04-29T13:00:55.349Z,2.72
2023-04-29T13:03:22.487Z,2.75
2023-04-29T13:05:52.695Z,2.80
2023-04-29T13:08:19.813Z,3.22
2023-04-29T13:10:46.565Z,3.17
2023-04-29T13:13:13.328Z,2.90
2023-04-29T13:15:40.015Z,3.40
2023-04-29T13:18:06.906Z,3.13
2023-04-29T13:20:40.385Z,2.80
2023-04-29T13:23:08.692Z,2.40
2023-04-29T13:25:35.696Z,2.88
2023-04-29T13:28:02.832Z,2.83
2023-04-29T13:30:29.615Z,2.92
2023-04-29T13:33:01.271Z,3.97
2023-04-29T13:35:36.139Z,3.47
2023-04-29T13:38:02.842Z,3.80
2023-04-29T13:40:29.719Z,3.97
2023-04-29T13:43:04.867Z,3.03
2023-04-29T13:45:38.829Z,3.38
2023-04-29T13:48:17.010Z,2.78
2023-04-29T13:53:52.841Z,3.25
2023-04-29T13:59:31.609Z,3.90
2023-04-29T14:03:58.764Z,4.45
2023-04-29T14:06:25.682Z,4.53
2023-04-29T14:08:52.292Z,4.40
2023-04-29T14:11:19.706Z,4.27
2023-04-29T14:16:13.014Z,7.63
2023-04-29T14:18:39.690Z,11.07
2023-04-29T14:21:06.416Z,5.57
2023-04-29T14:23:32.978Z,4.80
2023-04-29T14:26:11.577Z,4.72
2023-04-29T14:28:46.257Z,4.70
2023-04-29T14:31:13.884Z,5.05
2023-04-29T14:33:40.958Z,5.25
2023-04-29T14:36:08.140Z,5.07
2023-04-29T14:38:34.716Z,8.77
2023-04-29T14:41:01.370Z,4.35
2023-04-29T14:43:29.020Z,3.40
2023-04-29T14:45:56.145Z,3.75
2023-04-29T14:48:22.795Z,4.63
2023-04-29T14:50:49.676Z,4.15
2023-04-29T14:53:16.648Z,4.28
2023-04-29T14:55:43.436Z,3.95
2023-04-29T14:58:10.371Z,3.17
2023-04-29T15:00:37.069Z,2.88
2023-04-29T15:03:05.264Z,3.55
2023-04-29T15:05:32.122Z,2.70
2023-04-29T15:08:01.549Z,3.10
2023-04-29T15:10:28.674Z,2.78
2023-04-29T15:12:55.417Z,2.47
2023-04-29T15:15:23.298Z,2.50
2023-04-29T15:17:50.149Z,3.00
2023-04-29T15:20:16.858Z,2.92
2023-04-29T15:22:43.646Z,4.38
2023-04-29T15:25:10.484Z,5.40
2023-04-29T15:27:37.561Z,3.72
2023-04-29T15:30:05.994Z,3.10
2023-04-29T15:32:33.106Z,2.92
2023-04-29T15:35:00.585Z,4.18
2023-04-29T15:37:30.935Z,3.92
2023-04-29T15:40:00.959Z,3.85
2023-04-29T15:42:28.318Z,3.83
2023-04-29T15:44:54.929Z,3.80
2023-04-29T15:47:22.804Z,4.10
2023-04-29T15:49:52.826Z,4.00
2023-04-29T15:52:19.706Z,2.85
2023-04-29T15:54:46.544Z,2.60
2023-04-29T15:57:13.159Z,2.45
2023-04-29T15:59:39.791Z,3.50
2023-04-29T16:02:10.924Z,3.03
2023-04-29T16:04:39.259Z,2.50
2023-04-29T16:07:06.273Z,2.30
2023-04-29T16:09:34.143Z,2.40
2023-04-29T16:12:02.056Z,2.83
2023-04-29T16:14:30.101Z,2.55
2023-04-29T16:16:56.927Z,2.53
2023-04-29T16:19:23.659Z,2.53
2023-04-29T16:21:50.350Z,2.70
2023-04-29T16:24:16.990Z,2.70
2023-04-29T16:26:43.710Z,2.80
2023-04-29T16:29:12.536Z,3.15
2023-04-29T16:31:39.800Z,2.58
2023-04-29T16:34:06.547Z,2.42
2023-04-29T16:36:33.394Z,3.72
2023-04-29T16:39:00.184Z,3.00
2023-04-29T16:41:27.123Z,5.43
2023-04-29T16:43:54.411Z,6.30
2023-04-29T16:48:47.826Z,29.77
2023-04-29T16:51:14.805Z,16.70
2023-04-29T16:53:41.452Z,14.30
2023-04-29T16:56:08.604Z,12.02
2023-04-29T16:58:35.253Z,6.90
2023-04-29T17:01:01.964Z,9.32
2023-04-29T17:03:29.614Z,5.07
2023-04-29T17:05:56.431Z,5.93
2023-04-29T17:08:24.343Z,3.88
2023-04-29T17:10:50.919Z,3.75
2023-04-29T17:13:17.620Z,4.90
2023-04-29T17:15:44.266Z,3.72
2023-04-29T17:18:10.889Z,5.95
2023-04-29T17:20:37.491Z,7.25
2023-04-29T17:23:04.182Z,5.10
2023-04-29T17:25:30.885Z,4.65
2023-04-29T17:27:57.503Z,5.28
2023-04-29T17:30:24.928Z,3.97
2023-04-29T17:35:18.377Z,3.40
2023-04-29T17:37:45.167Z,3.58
2023-04-29T17:40:12.286Z,3.60
2023-04-29T17:42:39.068Z,3.88
2023-04-29T17:45:06.298Z,3.40
2023-04-29T17:47:32.969Z,3.40
2023-04-29T17:50:01.890Z,3.65
2023-04-29T17:52:29.410Z,3.97
2023-04-29T17:54:56.045Z,3.92
2023-04-29T17:57:22.995Z,3.50
2023-04-29T17:59:49.630Z,3.90
2023-04-29T18:02:16.546Z,3.35
2023-04-29T18:04:43.323Z,3.40
2023-04-29T18:07:10.101Z,3.58
2023-04-29T18:09:36.820Z,3.70
2023-04-29T18:12:05.296Z,3.60
2023-04-29T18:14:32.070Z,4.30
2023-04-29T18:17:02.037Z,4.00
2023-04-29T18:19:28.763Z,3.65
2023-04-29T18:21:58.384Z,3.63
2023-04-29T18:24:26.171Z,4.07
2023-04-29T18:26:52.880Z,4.00
2023-04-29T18:29:19.534Z,11.02
2023-04-29T18:31:46.362Z,39.30
2023-04-29T18:34:13.053Z,16.02
2023-04-29T18:36:39.786Z,7.72
2023-04-29T18:39:07.202Z,5.30
2023-04-29T18:44:00.364Z,6.55
2023-04-29T18:46:29.760Z,6.75
2023-04-29T18:48:56.795Z,6.20
2023-04-29T18:51:23.741Z,4.25
2023-04-29T18:53:50.550Z,5.15
2023-04-29T18:56:17.183Z,5.38
2023-04-29T18:58:43.779Z,5.88
2023-04-29T19:01:10.479Z,4.93
2023-04-29T19:03:37.206Z,4.75
2023-04-29T19:06:04.128Z,4.75
2023-04-29T19:08:30.825Z,4.25
2023-04-29T19:10:59.968Z,4.53
2023-04-29T19:13:27.846Z,4.35
2023-04-29T19:15:55.227Z,4.47
2023-04-29T19:20:50.468Z,4.80
2023-04-29T19:23:17.188Z,4.80
2023-04-29T19:25:44.227Z,4.85
2023-04-29T19:28:10.836Z,4.20
2023-04-29T19:30:37.615Z,8.43
2023-04-29T19:33:04.444Z,8.13
2023-04-29T19:35:31.157Z,7.57
2023-04-29T19:37:57.782Z,6.70
2023-04-29T19:40:24.410Z,6.13
2023-04-29T19:42:51.021Z,5.40
2023-04-29T19:45:17.676Z,9.20
2023-04-29T19:47:44.472Z,7.75
2023-04-29T19:50:11.177Z,7.40
2023-04-29T19:52:37.839Z,7.72
2023-04-29T19:55:05.020Z,7.20
2023-04-29T19:57:32.098Z,5.72
2023-04-29T19:59:58.818Z,4.97
2023-04-29T20:02:25.608Z,6.07
2023-04-29T20:04:52.294Z,5.55
2023-04-29T20:07:18.937Z,5.10
2023-04-29T20:09:45.888Z,3.92
2023-04-29T20:12:12.464Z,4.40
2023-04-29T20:14:39.213Z,4.73
2023-04-29T20:17:06.224Z,5.13
2023-04-29T20:19:32.957Z,5.07
2023-04-29T20:21:59.684Z,5.35
2023-04-29T20:24:27.285Z,5.53
2023-04-29T20:26:54.033Z,5.20
2023-04-29T20:29:21.356Z,6.38
2023-04-29T20:31:48.284Z,6.93
2023-04-29T20:34:14.956Z,6.20
2023-04-29T20:36:41.679Z,5.40
2023-04-29T20:39:09.022Z,4.97
2023-04-29T20:44:03.168Z,6.68
2023-04-29T20:46:29.819Z,7.55
2023-04-29T20:48:56.637Z,7.53
2023-04-29T20:51:23.521Z,7.53
2023-04-29T20:53:50.150Z,6.55
2023-04-29T20:56:16.800Z,5.65
2023-04-29T20:58:43.408Z,5.75
2023-04-29T21:01:10.189Z,6.68
2023-04-29T21:03:36.959Z,8.30
2023-04-29T21:06:03.715Z,8.68
2023-04-29T21:08:30.321Z,8.18
2023-04-29T21:10:57.007Z,14.07
2023-04-29T21:13:23.781Z,13.85
2023-04-29T21:15:51.018Z,9.75
2023-04-29T21:20:44.378Z,9.48
2023-04-29T21:23:10.929Z,10.93
2023-04-29T21:25:37.532Z,13.23
2023-04-29T21:28:04.664Z,9.47
2023-04-29T21:30:31.310Z,7.50
2023-04-29T21:32:58.091Z,7.60
2023-04-29T21:35:26.177Z,7.57
2023-04-29T21:37:52.879Z,7.95
2023-04-29T21:40:19.725Z,7.40
2023-04-29T21:42:47.026Z,7.85
2023-04-29T21:45:18.117Z,7.13
2023-04-29T21:47:45.090Z,7.40
2023-04-29T21:50:11.974Z,6.53
2023-04-29T21:52:38.622Z,6.45
2023-04-29T21:55:06.369Z,5.88
2023-04-29T21:57:43.512Z,6.60
2023-04-29T22:00:49.464Z,5.90
2023-04-29T22:03:16.210Z,6.50
2023-04-29T22:05:42.936Z,6.43
2023-04-29T22:08:09.572Z,6.33
2023-04-29T22:10:40.102Z,6.33
2023-04-29T22:13:07.458Z,6.40
2023-04-29T22:15:34.062Z,6.45
2023-04-29T22:18:00.922Z,6.38
2023-04-29T22:20:28.137Z,6.68
2023-04-29T22:22:54.965Z,9.05
2023-04-29T22:25:22.064Z,7.40
2023-04-29T22:27:49.780Z,6.72
2023-04-29T22:30:17.804Z,6.07
2023-04-29T22:32:44.812Z,6.65
2023-04-29T22:35:11.584Z,6.10
2023-04-29T22:37:38.251Z,6.45
2023-04-29T22:40:05.409Z,6.67
2023-04-29T22:42:31.997Z,7.32
2023-04-29T22:44:58.620Z,6.33
2023-04-29T22:47:25.175Z,7.17
2023-04-29T22:49:51.998Z,8.63
2023-04-29T22:52:18.854Z,8.10
2023-04-29T22:54:45.430Z,8.47
2023-04-29T22:57:12.076Z,9.33
2023-04-29T22:59:38.669Z,10.07
2023-04-29T23:02:05.861Z,9.50
2023-04-29T23:04:33.404Z,9.35
2023-04-29T23:07:00.045Z,9.07
2023-04-29T23:09:26.738Z,8.93
2023-04-29T23:11:53.340Z,9.15
2023-04-29T23:14:22.889Z,9.40
2023-04-29T23:16:51.078Z,9.02
2023-04-29T23:19:17.801Z,8.95
2023-04-29T23:21:44.438Z,9.35
2023-04-29T23:24:11.047Z,8.73
2023-04-29T23:26:37.609Z,8.97
2023-04-29T23:29:04.337Z,8.40
2023-04-29T23:31:30.946Z,8.43
2023-04-29T23:33:59.286Z,8.02
2023-04-29T23:36:26.079Z,8.23
2023-04-29T23:38:52.650Z,7.85
2023-04-29T23:41:19.270Z,7.30
2023-04-29T23:43:45.903Z,7.25
2023-04-29T23:46:12.508Z,7.30
2023-04-29T23:48:39.078Z,6.82
2023-04-29T23:51:05.754Z,7.23
2023-04-29T23:53:32.420Z,7.45
2023-04-29T23:55:59.123Z,7.57
2023-04-29T23:58:25.881Z,7.40
